createdAt,value
2022-10-14T00:02:22.597Z,100513.72
2022-10-14T00:04:49.175Z,100519.03
2022-10-14T00:07:15.766Z,100517.09
2022-10-14T00:09:42.329Z,100516.53
2022-10-14T00:12:08.982Z,100514.00
2022-10-14T00:14:35.559Z,100515.00
2022-10-14T00:17:02.155Z,100513.97
2022-10-14T00:19:28.740Z,100510.06
2022-10-14T00:21:55.315Z,100511.91
2022-10-14T00:24:21.892Z,100508.28
2022-10-14T00:26:48.474Z,100504.72
2022-10-14T00:29:17.072Z,100513.50
2022-10-14T00:31:43.687Z,100506.41
2022-10-14T00:34:10.583Z,100510.19
2022-10-14T00:36:37.144Z,100503.56
2022-10-14T00:39:03.746Z,100503.09
2022-10-14T00:41:32.607Z,100495.97
2022-10-14T00:44:11.302Z,100496.38
2022-10-14T00:46:49.049Z,100495.03
2022-10-14T00:49:15.649Z,100505.88
2022-10-14T00:51:46.830Z,100502.97
2022-10-14T00:54:16.760Z,100509.94
2022-10-14T00:56:45.099Z,100496.88
2022-10-14T00:59:12.088Z,100503.94
2022-10-14T01:01:38.694Z,100494.72
2022-10-14T01:04:05.449Z,100486.47
2022-10-14T01:06:46.910Z,100488.28
2022-10-14T01:09:38.202Z,100494.69
2022-10-14T01:12:28.180Z,100493.72
2022-10-14T01:15:12.605Z,100492.22
2022-10-14T01:17:53.923Z,100495.09
2022-10-14T01:20:30.830Z,100488.13
2022-10-14T01:23:06.903Z,100489.88
2022-10-14T01:26:17.957Z,100491.94
2022-10-14T01:29:18.601Z,100486.59
2022-10-14T01:31:50.973Z,100492.09
2022-10-14T01:34:29.072Z,100487.78
2022-10-14T01:37:02.925Z,100491.47
2022-10-14T01:39:36.123Z,100484.63
2022-10-14T01:42:11.495Z,100485.34
2022-10-14T01:44:43.312Z,100486.78
2022-10-14T01:47:14.001Z,100478.75
2022-10-14T01:50:01.525Z,100477.56
2022-10-14T01:52:38.163Z,100477.44
2022-10-14T01:55:09.900Z,100474.19
2022-10-14T01:57:39.725Z,100481.22
2022-10-14T02:00:07.179Z,100474.81
2022-10-14T02:02:37.042Z,100466.31
2022-10-14T02:05:30.294Z,100471.84
2022-10-14T02:08:43.320Z,100471.47
2022-10-14T02:11:46.013Z,100463.59
2022-10-14T02:14:33.890Z,100465.44
2022-10-14T02:17:17.641Z,100467.75
2022-10-14T02:19:49.576Z,100468.63
2022-10-14T02:22:24.675Z,100466.94
2022-10-14T02:24:55.805Z,100463.16
2022-10-14T02:27:26.199Z,100465.94
2022-10-14T02:29:56.206Z,100460.50
2022-10-14T02:32:25.758Z,100464.34
2022-10-14T02:34:57.803Z,100459.41
2022-10-14T02:37:26.454Z,100460.81
2022-10-14T02:40:01.894Z,100466.56
2022-10-14T02:42:28.675Z,100467.94
2022-10-14T02:44:58.509Z,100465.50
2022-10-14T02:47:25.506Z,100475.63
2022-10-14T02:49:52.937Z,100467.19
2022-10-14T02:52:20.146Z,100477.94
2022-10-14T02:54:46.924Z,100477.00
2022-10-14T02:57:13.513Z,100468.97
2022-10-14T02:59:40.152Z,100473.56
2022-10-14T03:02:07.591Z,100469.25
2022-10-14T03:04:35.047Z,100464.00
2022-10-14T03:07:01.649Z,100468.94
2022-10-14T03:09:28.249Z,100472.75
2022-10-14T03:11:54.826Z,100468.53
2022-10-14T03:14:21.420Z,100465.25
2022-10-14T03:16:48.085Z,100468.50
2022-10-14T03:19:14.740Z,100469.63
2022-10-14T03:21:41.301Z,100463.22
2022-10-14T03:24:09.215Z,100458.16
2022-10-14T03:26:35.793Z,100462.34
2022-10-14T03:29:02.399Z,100458.13
2022-10-14T03:31:28.982Z,100458.84
2022-10-14T03:33:55.571Z,100454.59
2022-10-14T03:36:22.164Z,100452.59
2022-10-14T03:38:48.753Z,100451.88
2022-10-14T03:41:15.359Z,100454.22
2022-10-14T03:43:41.935Z,100456.75
2022-10-14T03:46:08.535Z,100458.00
2022-10-14T03:48:35.170Z,100463.88
2022-10-14T03:51:01.742Z,100457.81
2022-10-14T03:53:28.306Z,100458.84
2022-10-14T03:55:55.010Z,100459.75
2022-10-14T03:58:21.575Z,100450.47
2022-10-14T04:00:48.196Z,100446.13
2022-10-14T04:03:14.871Z,100446.25
2022-10-14T04:05:41.482Z,100442.88
2022-10-14T04:08:08.240Z,100443.84
2022-10-14T04:10:35.419Z,100443.06
2022-10-14T04:13:02.006Z,100447.16
2022-10-14T04:15:28.611Z,100445.47
2022-10-14T04:17:56.520Z,100445.09
2022-10-14T04:20:23.334Z,100437.63
2022-10-14T04:22:49.935Z,100442.31
2022-10-14T04:25:16.543Z,100436.56
2022-10-14T04:27:43.225Z,100437.03
2022-10-14T04:30:10.594Z,100443.91
2022-10-14T04:32:37.326Z,100436.22
2022-10-14T04:35:04.335Z,100431.53
2022-10-14T04:37:31.193Z,100429.81
2022-10-14T04:39:57.888Z,100432.31
2022-10-14T04:42:24.741Z,100428.63
2022-10-14T04:44:54.275Z,100430.63
2022-10-14T04:47:20.972Z,100427.13
2022-10-14T04:49:47.557Z,100425.50
2022-10-14T04:52:14.302Z,100424.25
2022-10-14T04:54:40.909Z,100426.81
2022-10-14T04:57:07.547Z,100435.88
2022-10-14T04:59:34.116Z,100436.13
2022-10-14T05:02:00.769Z,100436.19
2022-10-14T05:04:27.489Z,100440.44
2022-10-14T05:06:54.063Z,100433.94
2022-10-14T05:09:20.656Z,100429.06
2022-10-14T05:11:47.301Z,100434.53
2022-10-14T05:14:13.882Z,100426.50
2022-10-14T05:16:40.467Z,100435.72
2022-10-14T05:19:07.051Z,100433.94
2022-10-14T05:21:33.622Z,100445.00
2022-10-14T05:24:00.216Z,100440.06
2022-10-14T05:26:26.821Z,100448.56
2022-10-14T05:28:53.465Z,100443.38
2022-10-14T05:31:20.072Z,100443.00
2022-10-14T05:33:46.706Z,100445.66
2022-10-14T05:36:13.275Z,100448.00
2022-10-14T05:38:39.891Z,100451.34
2022-10-14T05:41:06.501Z,100459.16
2022-10-14T05:43:33.232Z,100459.75
2022-10-14T05:46:00.583Z,100451.72
2022-10-14T05:48:27.293Z,100454.66
2022-10-14T05:50:54.299Z,100450.63
2022-10-14T05:53:20.967Z,100450.78
2022-10-14T05:55:47.552Z,100450.44
2022-10-14T05:58:14.152Z,100454.88
2022-10-14T06:00:40.740Z,100461.84
2022-10-14T06:03:07.423Z,100456.41
2022-10-14T06:05:37.073Z,100458.59
2022-10-14T06:08:03.762Z,100459.91
2022-10-14T06:10:30.339Z,100469.81
2022-10-14T06:12:57.220Z,100466.84
2022-10-14T06:15:23.795Z,100471.63
2022-10-14T06:17:50.578Z,100469.94
2022-10-14T06:20:17.236Z,100472.47
2022-10-14T06:22:43.830Z,100483.94
2022-10-14T06:25:10.395Z,100479.53
2022-10-14T06:27:37.000Z,100491.03
2022-10-14T06:30:04.827Z,100483.03
2022-10-14T06:32:31.381Z,100481.81
2022-10-14T06:34:57.953Z,100481.59
2022-10-14T06:37:24.696Z,100487.72
2022-10-14T06:39:51.296Z,100488.78
2022-10-14T06:42:17.879Z,100488.06
2022-10-14T06:44:44.475Z,100487.97
2022-10-14T06:47:11.059Z,100485.59
2022-10-14T06:49:37.632Z,100498.06
2022-10-14T06:52:04.361Z,100498.09
2022-10-14T06:54:34.450Z,100489.28
2022-10-14T06:57:03.521Z,100490.00
2022-10-14T06:59:30.111Z,100486.13
2022-10-14T07:01:57.287Z,100485.72
2022-10-14T07:04:23.960Z,100496.25
2022-10-14T07:06:50.571Z,100492.75
2022-10-14T07:09:17.484Z,100498.69
2022-10-14T07:11:44.054Z,100497.84
2022-10-14T07:14:10.660Z,100508.25
2022-10-14T07:16:37.308Z,100500.44
2022-10-14T07:19:03.881Z,100499.03
2022-10-14T07:21:30.489Z,100498.13
2022-10-14T07:23:57.119Z,100502.44
2022-10-14T07:26:23.716Z,100502.53
2022-10-14T07:28:50.480Z,100504.19
2022-10-14T07:31:17.114Z,100496.53
2022-10-14T07:33:43.754Z,100502.59
2022-10-14T07:36:16.052Z,100500.69
2022-10-14T07:38:46.001Z,100498.94
2022-10-14T07:41:16.570Z,100489.97
2022-10-14T07:43:44.710Z,100490.78
2022-10-14T07:46:11.981Z,100500.38
2022-10-14T07:48:52.542Z,100497.44
2022-10-14T07:51:22.852Z,100486.78
2022-10-14T07:53:49.487Z,100494.66
2022-10-14T07:56:16.119Z,100500.06
2022-10-14T07:58:44.622Z,100510.16
2022-10-14T08:01:11.368Z,100496.34
2022-10-14T08:03:38.004Z,100498.78
2022-10-14T08:06:05.569Z,100492.28
2022-10-14T08:08:33.097Z,100494.41
2022-10-14T08:11:20.915Z,100488.50
2022-10-14T08:13:48.156Z,100479.47
2022-10-14T08:16:20.345Z,100482.22
2022-10-14T08:18:47.515Z,100483.59
2022-10-14T08:21:15.983Z,100481.94
2022-10-14T08:23:43.094Z,100482.38
2022-10-14T08:26:33.994Z,100479.38
2022-10-14T08:29:03.050Z,100479.06
2022-10-14T08:31:29.644Z,100488.59
2022-10-14T08:33:56.301Z,100487.75
2022-10-14T08:36:23.726Z,100479.06
2022-10-14T08:38:52.822Z,100471.28
2022-10-14T08:41:37.450Z,100463.66
2022-10-14T08:44:25.337Z,100460.44
2022-10-14T08:46:58.785Z,100460.44
2022-10-14T08:50:00.561Z,100459.50
2022-10-14T08:52:58.178Z,100454.59
2022-10-14T08:55:46.565Z,100454.53
2022-10-14T08:58:13.171Z,100447.75
2022-10-14T09:00:42.536Z,100450.72
2022-10-14T09:03:23.979Z,100460.78
2022-10-14T09:05:57.579Z,100453.69
2022-10-14T09:08:29.485Z,100459.53
2022-10-14T09:10:57.143Z,100458.16
2022-10-14T09:13:35.419Z,100455.19
2022-10-14T09:16:14.383Z,100453.78
2022-10-14T09:18:55.614Z,100455.16
2022-10-14T09:24:25.853Z,100452.94
2022-10-14T09:27:00.505Z,100459.69
2022-10-14T09:29:30.745Z,100458.25
2022-10-14T09:32:05.600Z,100460.75
2022-10-14T09:34:39.654Z,100459.66
2022-10-14T09:37:37.228Z,100461.03
2022-10-14T09:40:12.813Z,100464.03
2022-10-14T09:42:57.034Z,100460.56
2022-10-14T09:45:25.218Z,100454.97
2022-10-14T09:48:03.967Z,100461.88
2022-10-14T09:50:36.208Z,100448.28
2022-10-14T09:53:16.157Z,100455.72
2022-10-14T09:55:57.613Z,100458.53
2022-10-14T09:58:42.649Z,100471.03
2022-10-14T10:01:16.490Z,100457.06
2022-10-14T10:06:54.452Z,100455.63
2022-10-14T10:09:21.873Z,100457.06
2022-10-14T10:11:48.944Z,100455.50
2022-10-14T10:14:44.825Z,100453.78
2022-10-14T10:17:17.058Z,100455.41
2022-10-14T10:19:46.604Z,100452.59
2022-10-14T10:22:16.275Z,100450.03
2022-10-14T10:24:42.926Z,100448.31
2022-10-14T10:27:21.261Z,100443.81
2022-10-14T10:29:48.091Z,100446.19
2022-10-14T10:32:31.004Z,100440.59
2022-10-14T10:35:14.012Z,100431.31
2022-10-14T10:38:02.641Z,100436.38
2022-10-14T10:40:41.006Z,100432.81
2022-10-14T10:43:26.650Z,100432.75
2022-10-14T10:46:16.260Z,100429.59
2022-10-14T10:48:56.320Z,100420.13
2022-10-14T10:51:35.711Z,100422.72
2022-10-14T10:54:40.232Z,100424.16
2022-10-14T10:57:28.574Z,100414.13
2022-10-14T11:00:04.388Z,100412.28
2022-10-14T11:02:50.601Z,100405.16
2022-10-14T11:05:23.987Z,100405.00
2022-10-14T11:07:50.589Z,100408.47
2022-10-14T11:10:20.012Z,100407.28
2022-10-14T11:12:56.411Z,100407.03
2022-10-14T11:15:44.901Z,100394.28
2022-10-14T11:18:26.505Z,100393.09
2022-10-14T11:21:08.270Z,100389.31
2022-10-14T11:23:53.200Z,100385.16
2022-10-14T11:26:43.305Z,100388.91
2022-10-14T11:29:43.815Z,100388.34
2022-10-14T11:32:55.485Z,100386.97
2022-10-14T11:35:22.074Z,100379.91
2022-10-14T11:38:07.097Z,100383.63
2022-10-14T11:40:50.150Z,100384.22
2022-10-14T11:43:32.807Z,100376.31
2022-10-14T11:46:12.046Z,100372.56
2022-10-14T11:48:45.795Z,100368.06
2022-10-14T11:51:35.718Z,100371.50
2022-10-14T11:54:25.402Z,100364.66
2022-10-14T11:57:00.557Z,100367.59
2022-10-14T11:59:47.941Z,100361.25
2022-10-14T12:02:53.982Z,100360.75
2022-10-14T12:05:49.738Z,100357.44
2022-10-14T12:08:56.632Z,100360.09
2022-10-14T12:11:25.937Z,100366.75
2022-10-14T12:14:15.862Z,100360.84
2022-10-14T12:16:46.252Z,100350.50
2022-10-14T12:19:22.519Z,100352.75
2022-10-14T12:21:54.158Z,100345.63
2022-10-14T12:24:24.078Z,100347.44
2022-10-14T12:26:57.848Z,100345.06
2022-10-14T12:29:45.276Z,100337.25
2022-10-14T12:32:17.805Z,100340.56
2022-10-14T12:34:46.612Z,100338.06
2022-10-14T12:37:28.917Z,100336.47
2022-10-14T12:40:04.240Z,100327.56
2022-10-14T12:42:35.042Z,100336.88
2022-10-14T12:45:13.488Z,100321.50
2022-10-14T12:47:41.204Z,100330.44
2022-10-14T12:50:13.737Z,100330.97
2022-10-14T12:52:47.696Z,100322.16
2022-10-14T12:55:26.162Z,100317.03
2022-10-14T12:58:04.140Z,100317.66
2022-10-14T13:00:38.599Z,100325.19
2022-10-14T13:03:17.924Z,100324.41
2022-10-14T13:05:45.563Z,100324.13
2022-10-14T13:08:27.569Z,100319.69
2022-10-14T13:11:00.420Z,100324.97
2022-10-14T13:13:39.203Z,100318.66
2022-10-14T13:16:10.405Z,100320.25
2022-10-14T13:18:49.150Z,100318.00
2022-10-14T13:21:28.158Z,100317.69
2022-10-14T13:23:55.695Z,100311.47
2022-10-14T13:26:40.924Z,100308.41
2022-10-14T13:30:09.305Z,100314.28
2022-10-14T13:32:48.892Z,100312.25
2022-10-14T13:35:46.802Z,100310.34
2022-10-14T13:38:16.962Z,100311.94
2022-10-14T13:40:46.887Z,100305.03
2022-10-14T13:43:24.745Z,100312.25
2022-10-14T13:46:15.397Z,100310.03
2022-10-14T13:48:51.860Z,100306.91
2022-10-14T13:51:36.144Z,100304.53
2022-10-14T13:54:22.762Z,100300.63
2022-10-14T14:02:43.308Z,100306.72
2022-10-14T14:05:16.258Z,100295.84
2022-10-14T14:10:30.499Z,100295.25
2022-10-14T14:12:59.077Z,100287.44
2022-10-14T14:15:29.261Z,100286.56
2022-10-14T14:18:30.530Z,100284.19
2022-10-14T14:21:04.966Z,100291.91
2022-10-14T14:23:31.567Z,100288.19
2022-10-14T14:26:18.373Z,100285.50
2022-10-14T14:28:47.924Z,100292.88
2022-10-14T14:31:17.686Z,100285.31
2022-10-14T14:33:45.852Z,100285.03
2022-10-14T14:36:27.475Z,100285.81
2022-10-14T14:39:02.095Z,100278.31
2022-10-14T14:41:31.454Z,100274.50
2022-10-14T14:46:52.301Z,100284.44
2022-10-14T14:49:38.615Z,100284.22
2022-10-14T14:52:06.467Z,100279.31
2022-10-14T14:54:33.055Z,100275.13
2022-10-14T14:56:59.645Z,100281.38
2022-10-14T14:59:29.139Z,100289.97
2022-10-14T15:04:34.062Z,100276.06
2022-10-14T15:07:05.080Z,100281.53
2022-10-14T15:09:47.912Z,100274.50
2022-10-14T15:12:20.158Z,100271.72
2022-10-14T15:14:51.907Z,100280.91
2022-10-14T15:17:40.038Z,100273.34
2022-10-14T15:20:29.553Z,100273.56
2022-10-14T15:22:56.371Z,100275.31
2022-10-14T15:25:29.853Z,100277.03
2022-10-14T15:28:00.989Z,100278.13
2022-10-14T15:30:39.736Z,100272.59
2022-10-14T15:33:21.745Z,100271.41
2022-10-14T15:35:58.520Z,100274.38
2022-10-14T15:38:26.503Z,100264.78
2022-10-14T15:40:53.632Z,100270.63
2022-10-14T15:43:25.023Z,100282.41
2022-10-14T15:45:54.428Z,100272.50
2022-10-14T15:48:21.052Z,100269.28
2022-10-14T15:50:48.032Z,100273.34
2022-10-14T15:53:17.306Z,100284.41
2022-10-14T15:55:43.878Z,100277.84
2022-10-14T15:58:10.458Z,100284.78
2022-10-14T16:00:37.132Z,100289.59
2022-10-14T16:03:03.895Z,100287.63
2022-10-14T16:05:30.557Z,100293.22
2022-10-14T16:07:57.552Z,100294.97
2022-10-14T16:10:35.385Z,100298.06
2022-10-14T16:13:01.963Z,100299.44
2022-10-14T16:15:28.470Z,100297.78
2022-10-14T16:17:55.481Z,100309.53
2022-10-14T16:20:22.655Z,100306.81
2022-10-14T16:22:50.162Z,100306.66
2022-10-14T16:25:24.085Z,100303.66
2022-10-14T16:27:50.817Z,100304.19
2022-10-14T16:30:17.518Z,100305.97
2022-10-14T16:32:44.202Z,100312.00
2022-10-14T16:35:10.805Z,100318.78
2022-10-14T16:37:37.473Z,100312.50
2022-10-14T16:40:05.305Z,100316.41
2022-10-14T16:42:31.923Z,100322.09
2022-10-14T16:44:58.632Z,100320.22
2022-10-14T16:47:25.485Z,100318.53
2022-10-14T16:49:53.970Z,100319.44
2022-10-14T16:52:21.412Z,100325.63
2022-10-14T16:54:48.352Z,100327.28
2022-10-14T16:57:15.360Z,100322.63
2022-10-14T16:59:42.186Z,100316.22
2022-10-14T17:02:13.923Z,100318.81
2022-10-14T17:04:40.505Z,100329.47
2022-10-14T17:07:07.136Z,100319.19
2022-10-14T17:09:35.202Z,100323.34
2022-10-14T17:12:05.009Z,100331.94
2022-10-14T17:14:32.486Z,100324.91
2022-10-14T17:16:59.820Z,100324.22
2022-10-14T17:19:26.878Z,100326.75
2022-10-14T17:21:53.454Z,100316.84
2022-10-14T17:24:20.274Z,100320.81
2022-10-14T17:26:46.887Z,100316.06
2022-10-14T17:29:13.617Z,100319.66
2022-10-14T17:31:40.206Z,100322.63
2022-10-14T17:34:06.840Z,100315.66
2022-10-14T17:36:33.494Z,100318.19
2022-10-14T17:39:00.498Z,100321.69
2022-10-14T17:41:29.560Z,100319.72
2022-10-14T17:43:57.677Z,100318.38
2022-10-14T17:46:25.804Z,100313.38
2022-10-14T17:48:57.836Z,100322.19
2022-10-14T17:51:26.225Z,100312.88
2022-10-14T17:53:54.399Z,100322.66
2022-10-14T17:56:21.057Z,100329.69
2022-10-14T17:58:47.630Z,100325.53
2022-10-14T18:01:15.643Z,100319.13
2022-10-14T18:03:44.241Z,100321.31
2022-10-14T18:06:15.782Z,100325.53
2022-10-14T18:08:43.996Z,100324.47
2022-10-14T18:11:11.551Z,100323.38
2022-10-14T18:16:12.729Z,100317.16
2022-10-14T18:18:40.787Z,100327.00
2022-10-14T18:21:08.813Z,100324.25
2022-10-14T18:23:38.725Z,100325.34
2022-10-14T18:26:13.430Z,100324.78
2022-10-14T18:28:48.758Z,100330.19
2022-10-14T18:31:18.573Z,100328.88
2022-10-14T18:33:46.378Z,100324.44
2022-10-14T18:36:16.542Z,100323.41
2022-10-14T18:38:48.566Z,100326.19
2022-10-14T18:41:15.502Z,100328.16
2022-10-14T18:43:42.130Z,100334.50
2022-10-14T18:46:45.316Z,100321.56
2022-10-14T18:49:12.125Z,100328.00
2022-10-14T18:51:40.747Z,100321.03
2022-10-14T18:54:20.082Z,100319.78
2022-10-14T18:56:47.529Z,100333.13
2022-10-14T18:59:19.935Z,100325.78
2022-10-14T19:01:47.562Z,100331.16
2022-10-14T19:04:16.065Z,100323.44
2022-10-14T19:06:42.832Z,100330.47
2022-10-14T19:09:09.521Z,100331.47
2022-10-14T19:11:36.099Z,100344.03
2022-10-14T19:14:06.915Z,100346.59
2022-10-14T19:16:38.699Z,100343.13
2022-10-14T19:19:08.424Z,100350.16
2022-10-14T19:21:35.222Z,100345.72
2022-10-14T19:24:03.030Z,100341.69
2022-10-14T19:26:32.776Z,100348.75
2022-10-14T19:29:01.232Z,100354.50
2022-10-14T19:31:30.675Z,100350.53
2022-10-14T19:34:00.435Z,100349.06
2022-10-14T19:36:27.679Z,100346.91
2022-10-14T19:38:56.924Z,100347.84
2022-10-14T19:41:28.371Z,100348.69
2022-10-14T19:43:57.205Z,100358.41
2022-10-14T19:46:24.230Z,100353.97
2022-10-14T19:48:50.830Z,100352.28
2022-10-14T19:51:17.434Z,100351.69
2022-10-14T19:53:44.534Z,100355.34
2022-10-14T19:56:13.425Z,100353.75
2022-10-14T19:58:44.706Z,100348.66
2022-10-14T20:01:11.808Z,100351.63
2022-10-14T20:03:38.660Z,100355.94
2022-10-14T20:06:07.005Z,100362.56
2022-10-14T20:08:34.691Z,100356.44
2022-10-14T20:11:05.565Z,100366.22
2022-10-14T20:13:34.195Z,100363.53
2022-10-14T20:16:02.336Z,100364.63
2022-10-14T20:18:33.046Z,100368.69
2022-10-14T20:21:01.266Z,100363.06
2022-10-14T20:23:27.928Z,100361.47
2022-10-14T20:26:07.016Z,100355.25
2022-10-14T20:28:38.265Z,100362.69
2022-10-14T20:31:10.262Z,100362.75
2022-10-14T20:33:37.203Z,100353.31
2022-10-14T20:36:10.709Z,100358.22
2022-10-14T20:38:38.628Z,100358.09
2022-10-14T20:41:07.528Z,100355.34
2022-10-14T20:43:34.145Z,100348.75
2022-10-14T20:46:00.795Z,100355.50
2022-10-14T20:48:27.349Z,100350.53
2022-10-14T20:50:54.065Z,100349.00
2022-10-14T20:53:20.637Z,100343.41
2022-10-14T20:55:47.238Z,100343.38
2022-10-14T20:58:13.904Z,100349.16
2022-10-14T21:00:40.487Z,100349.47
2022-10-14T21:03:07.078Z,100343.41
2022-10-14T21:05:36.241Z,100347.16
2022-10-14T21:08:03.347Z,100348.84
2022-10-14T21:10:29.983Z,100348.84
2022-10-14T21:13:35.768Z,100347.81
2022-10-14T21:16:02.653Z,100349.03
2022-10-14T21:18:29.223Z,100341.78
2022-10-14T21:20:55.830Z,100344.56
2022-10-14T21:23:22.495Z,100342.84
2022-10-14T21:25:56.843Z,100342.59
2022-10-14T21:28:23.964Z,100351.38
2022-10-14T21:30:50.599Z,100344.81
2022-10-14T21:33:17.241Z,100347.94
2022-10-14T21:35:43.929Z,100346.91
2022-10-14T21:38:10.558Z,100352.41
2022-10-14T21:40:37.156Z,100347.06
2022-10-14T21:43:03.760Z,100344.41
2022-10-14T21:45:30.334Z,100342.91
2022-10-14T21:50:28.590Z,100335.38
2022-10-14T21:52:55.207Z,100327.47
2022-10-14T21:55:21.793Z,100327.09
2022-10-14T21:57:48.378Z,100325.56
2022-10-14T22:00:15.135Z,100326.69
2022-10-14T22:02:41.723Z,100333.47
2022-10-14T22:05:08.523Z,100328.06
2022-10-14T22:07:35.193Z,100332.28
2022-10-14T22:10:01.786Z,100326.44
2022-10-14T22:12:28.370Z,100326.41
2022-10-14T22:14:56.057Z,100321.13
2022-10-14T22:17:22.874Z,100320.38
2022-10-14T22:19:49.587Z,100320.47
2022-10-14T22:22:16.255Z,100321.31
2022-10-14T22:24:43.087Z,100316.19
2022-10-14T22:27:09.667Z,100315.06
2022-10-14T22:29:36.282Z,100313.28
2022-10-14T22:32:02.861Z,100318.28
2022-10-14T22:34:29.420Z,100323.06
2022-10-14T22:36:56.047Z,100318.75
2022-10-14T22:39:22.625Z,100319.03
2022-10-14T22:41:49.325Z,100317.25
2022-10-14T22:44:15.910Z,100320.00
2022-10-14T22:46:42.515Z,100321.88
2022-10-14T22:49:09.140Z,100331.44
2022-10-14T22:51:38.465Z,100325.84
2022-10-14T22:54:05.149Z,100321.75
2022-10-14T22:56:32.733Z,100322.53
2022-10-14T22:59:01.750Z,100323.22
2022-10-14T23:01:29.390Z,100316.97
2022-10-14T23:03:57.464Z,100318.88
2022-10-14T23:06:25.065Z,100317.97
2022-10-14T23:08:51.675Z,100320.81
2022-10-14T23:11:20.130Z,100317.13
2022-10-14T23:13:47.075Z,100316.16
2022-10-14T23:16:19.171Z,100322.81
2022-10-14T23:18:46.669Z,100322.81
2022-10-14T23:21:14.898Z,100330.50
2022-10-14T23:23:42.042Z,100329.03
2022-10-14T23:26:10.394Z,100330.94
2022-10-14T23:28:38.107Z,100324.00
2022-10-14T23:31:13.166Z,100316.34
2022-10-14T23:33:40.777Z,100327.97
2022-10-14T23:36:09.992Z,100325.88
2022-10-14T23:38:37.422Z,100322.22
2022-10-14T23:41:05.345Z,100331.81
2022-10-14T23:43:31.999Z,100325.69
2022-10-14T23:45:59.239Z,100338.13
2022-10-14T23:48:26.094Z,100330.56
2022-10-14T23:50:53.242Z,100326.34
2022-10-14T23:53:19.987Z,100329.16
2022-10-14T23:55:47.308Z,100329.88
2022-10-14T23:58:14.092Z,100334.47
